Latest Weather Observations for Albion Park

IDN60801

Issued at 8:22 pm EDT Tuesday 11 December 2018 (issued every 10 minutes, with the page automatically refreshed every 10 minutes)

About weather observations | Map of weather stations | Latest weather observations for NSW | Other Formats
Station Details ID: 068241 Name: WOLLONGONG AIRPORT Lat: -34.56 Lon: 150.79 Height: 8.0 m
Data from the previous 72 hours. | See also: Recent months at Albion Park
Date/Time
EDT
Temp
°C
App
Temp
°C
Dew
Point
°C
Rel
Hum
%
Delta-T
°C
Wind Press
QNH
hPa
Press
MSL
hPa
Rain since
9am
mm
Dir  Spd
km/h
Gust
km/h
Spd
kts
Gust
kts
11/08:00pm 20.3 20.6 15.1 72 3.1 ESE 7 9 4 5 1018.6 1018.6 0.0
11/07:30pm 20.4 20.3 15.0 71 3.2 ENE 9 13 5 7 1018.5 1018.5 0.0
11/07:00pm 20.8 20.9 15.4 71 3.2 ENE 9 15 5 8 1018.1 1018.1 0.0
11/06:30pm 20.8 20.2 15.6 72 3.1 E 13 17 7 9 1017.8 1017.8 0.0
11/06:00pm 21.1 20.5 15.6 71 3.3 ENE 13 19 7 10 1017.8 1017.8 0.0
11/05:30pm 21.1 20.1 14.5 66 3.9 ENE 13 17 7 9 1017.7 1017.7 0.0
11/05:00pm 21.4 20.4 14.6 65 4.0 NE 13 20 7 11 1017.9 1017.9 0.0
11/04:30pm 21.5 19.8 14.6 65 4.1 NE 17 22 9 12 1017.8 1017.8 0.0
11/04:00pm 21.9 20.2 14.8 64 4.2 NE 17 20 9 11 1018.0 1018.0 0.0
11/03:30pm 22.0 20.3 14.6 63 4.4 ENE 17 30 9 16 1018.2 1018.2 0.0
11/03:00pm 22.3 21.0 14.9 63 4.4 ENE 15 20 8 11 1018.2 1018.2 0.0
11/02:30pm 22.8 21.7 15.4 63 4.4 ENE 15 24 8 13 1018.5 1018.5 0.0
11/02:00pm 22.1 21.1 14.5 62 4.5 ESE 13 20 7 11 1018.7 1018.7 0.0
11/01:30pm 22.2 21.2 14.6 62 4.5 ESE 13 20 7 11 1019.1 1019.1 0.0
11/01:00pm 22.5 21.3 15.1 63 4.4 ESE 15 20 8 11 1019.1 1019.1 0.0
11/12:30pm 22.4 21.3 14.3 60 4.7 E 13 20 7 11 1019.4 1019.4 0.0
11/12:00pm 23.4 22.8 15.7 62 4.6 E 13 20 7 11 1019.3 1019.3 0.0
11/11:30am 22.8 22.0 15.1 62 4.6 E 13 22 7 12 1019.8 1019.8 0.0
11/11:00am 22.9 23.2 16.0 65 4.2 E 9 17 5 9 1019.6 1019.6 0.0
11/10:30am 22.5 22.0 14.9 62 4.5 E 11 19 6 10 1019.9 1019.9 0.0
11/10:00am 22.4 22.8 15.3 64 4.2 SE 7 15 4 8 1019.7 1019.7 0.0
11/09:30am 21.3 21.2 14.9 67 3.8 ESE 9 15 5 8 1019.8 1019.8 0.0
11/09:00am 20.8 20.5 15.4 71 3.2 SE 11 17 6 9 1019.7 1019.7 0.4
11/08:30am 20.4 20.7 16.0 76 2.6 SE 9 11 5 6 1019.7 1019.7 0.4
11/08:00am 19.2 20.8 17.0 87 1.3 W 4 6 2 3 1019.4 1019.4 0.4
11/07:30am 18.4 19.8 17.9 97 0.3 W 7 7 4 4 1019.3 1019.3 0.4
11/07:00am 17.3 18.4 17.1 99 0.1 W 7 11 4 6 1018.8 1018.8 0.4
11/06:30am 16.4 16.8 16.4 100 0.0 W 9 11 5 6 1018.7 1018.7 0.4
11/06:00am 14.9 16.4 14.7 99 0.1 CALM 0 7 0 4 1018.4 1018.4 0.4
11/05:30am 14.8 15.1 14.6 99 0.1 W 6 9 3 5 1018.3 1018.3 0.4
11/05:00am 14.9 14.7 14.7 99 0.1 W 9 11 5 6 1018.0 1018.0 0.4
11/04:30am 15.0 15.4 14.8 99 0.1 W 6 7 3 4 1017.8 1017.8 0.4
11/04:00am 15.3 14.9 15.1 99 0.1 W 11 13 6 7 1017.9 1017.9 0.4
11/03:34am 15.6 16.0 15.4 99 0.1 W 7 11 4 6 1018.0 1018.0 0.4
11/03:30am 15.5 16.1 15.3 99 0.1 W 6 9 3 5 1018.0 1018.0 0.4
11/03:05am 16.1 16.7 15.9 99 0.1 W 7 9 4 5 1018.1 1018.1 0.4
11/03:00am 15.7 16.2 15.5 99 0.1 W 7 9 4 5 1018.1 1018.1 0.4
11/02:30am 16.8 17.3 16.6 99 0.1 W 9 11 5 6 1018.3 1018.3 0.4
11/02:00am 16.8 17.7 16.6 99 0.1 WSW 7 11 4 6 1018.5 1018.5 0.4
11/01:30am 17.4 18.6 16.8 96 0.4 SSW 6 7 3 4 1018.3 1018.3 0.4
11/01:00am 17.9 19.3 17.3 96 0.4 SSW 6 9 3 5 1018.7 1018.7 0.4
11/12:30am 18.1 19.4 17.0 93 0.7 W 6 7 3 4 1018.9 1018.9 0.4
11/12:00am 18.3 19.8 17.7 96 0.4 W 6 9 3 5 1018.8 1018.8 0.4
 
Date/Time
EDT
Temp
°C
App
Temp
°C
Dew
Point
°C
Rel
Hum
%
Delta-T
°C
Wind Press
QNH
hPa
Press
MSL
hPa
Rain since
9am
mm
Dir  Spd
km/h
Gust
km/h
Spd
kts
Gust
kts
10/11:30pm 18.5 19.6 17.9 96 0.4 W 9 11 5 6 1019.2 1019.2 0.4
10/11:00pm 18.6 19.8 17.3 92 0.8 SW 7 9 4 5 1019.1 1019.1 0.4
10/10:30pm 19.3 20.7 17.3 88 1.2 S 6 9 3 5 1019.1 1019.1 0.4
10/10:00pm 19.3 20.5 17.3 88 1.2 SSE 7 11 4 6 1018.8 1018.8 0.4
10/09:30pm 19.2 20.6 17.3 89 1.2 S 6 11 3 6 1019.2 1019.2 0.4
10/09:00pm 19.5 19.5 17.1 86 1.5 S 13 19 7 10 1018.8 1018.8 0.4
10/08:30pm 19.5 19.5 18.0 91 0.9 SSE 15 20 8 11 1018.3 1018.3 0.2
10/08:00pm 20.2 20.5 17.8 86 1.5 SSE 13 17 7 9 1017.7 1017.7 0.0
10/07:30pm 21.3 21.1 17.7 80 2.2 SSE 15 22 8 12 1017.3 1017.3 0.0
10/07:00pm 21.6 20.2 18.0 80 2.2 SSE 22 35 12 19 1017.1 1017.1 0.0
10/06:30pm 21.8 20.1 18.2 80 2.2 SSE 24 37 13 20 1016.2 1016.2 0.0
10/06:00pm 22.1 20.6 18.5 80 2.3 SSE 24 39 13 21 1015.8 1015.8 0.0
10/05:30pm 22.4 20.6 18.8 80 2.3 SSE 26 39 14 21 1015.0 1015.0 0.0
10/05:00pm 23.3 21.9 18.8 76 2.8 SSE 24 35 13 19 1014.7 1014.7 0.0
10/04:30pm 24.5 22.4 16.2 60 5.1 SSE 22 33 12 18 1014.5 1014.5 0.0
10/04:00pm 24.7 23.8 16.9 62 4.8 SSE 17 24 9 13 1014.2 1014.2 0.0
10/03:30pm 25.4 25.2 17.6 62 4.9 SE 15 24 8 13 1014.2 1014.2 0.0
10/03:00pm 26.6 27.7 17.9 59 5.5 SSE 9 17 5 9 1013.9 1013.9 0.0
10/02:30pm 26.0 26.5 18.4 63 4.8 SE 13 17 7 9 1014.2 1014.2 0.0
10/02:00pm 26.5 27.8 18.4 61 5.1 SSE 9 13 5 7 1014.1 1014.1 0.0
10/01:30pm 25.2 26.5 20.2 74 3.3 NE 13 17 7 9 1013.4 1013.4 0.0
10/01:00pm 25.0 25.6 19.4 71 3.6 NNE 15 22 8 12 1013.8 1013.8 0.0
10/12:30pm 25.6 27.1 17.5 61 5.1 WSW 6 15 3 8 1015.2 1015.2 0.0
10/12:00pm 25.4 27.3 19.8 71 3.6 SW 9 15 5 8 1015.6 1015.6 0.0
10/11:30am 24.6 26.7 19.0 71 3.6 NNW 6 9 3 5 1015.3 1015.3 0.0
10/11:00am 23.5 25.0 19.0 76 2.9 W 9 11 5 6 1015.6 1015.6 0.0
10/10:30am 22.9 24.6 19.3 80 2.3 WNW 9 11 5 6 1015.1 1015.1 0.0
10/10:00am 22.8 26.1 19.0 79 2.4 CALM 0 7 0 4 1015.6 1015.6 0.0
10/09:30am 22.6 24.5 18.6 78 2.5 NNE 6 7 3 4 1015.9 1015.9 0.0
10/09:00am 22.4 24.4 19.2 82 2.0 N 7 9 4 5 1015.9 1015.9 0.0
10/08:30am 22.1 23.7 19.1 83 1.9 N 9 13 5 7 1016.0 1016.0 0.0
10/08:00am 21.9 24.0 19.3 85 1.6 NW 7 9 4 5 1016.3 1016.3 0.0
10/07:30am 21.5 23.9 18.7 84 1.8 SE 4 6 2 3 1016.8 1016.8 0.0
10/07:00am 21.0 22.5 18.8 87 1.4 SSE 9 15 5 8 1017.1 1017.1 0.0
10/06:30am 20.7 23.0 19.5 93 0.8 SSE 6 9 3 5 1016.8 1016.8 0.0
10/06:00am 20.7 22.2 19.7 94 0.6 S 11 15 6 8 1016.5 1016.5 0.0
10/05:30am 20.7 22.2 19.7 94 0.6 S 11 15 6 8 1016.0 1016.0 0.0
10/05:00am 20.6 22.8 19.6 94 0.6 SSE 7 11 4 6 1015.5 1015.5 0.0
10/04:30am 20.6 22.8 19.6 94 0.6 SSE 7 9 4 5 1015.1 1015.1 0.0
10/04:00am 20.8 23.2 19.6 93 0.8 SE 6 7 3 4 1015.0 1015.0 0.0
10/03:30am 20.9 23.3 19.6 92 0.8 ESE 6 9 3 5 1015.2 1015.2 0.0
10/03:00am 21.1 23.3 19.6 91 1.0 ESE 7 9 4 5 1015.5 1015.5 0.0
10/02:30am 21.2 23.1 19.7 91 1.0 ESE 9 11 5 6 1015.8 1015.8 0.0
10/02:15am 21.2 23.4 19.7 91 1.0 ESE 7 11 4 6 1015.9 1015.9 0.0
10/02:00am 21.2 23.4 19.7 91 1.0 SE 7 11 4 6 1015.9 1015.9 0.0
10/01:30am 21.1 23.5 19.6 91 1.0 ESE 6 9 3 5 1016.1 1016.1 0.0
10/01:12am 21.3 23.8 19.8 91 1.0 ESE 6 7 3 4 1016.5 1016.5 0.0
10/01:08am 21.3 23.7 19.6 90 1.1 ESE 6 7 3 4 1016.5 1016.5 0.0
10/01:00am 21.3 23.8 19.8 91 1.0 SE 6 7 3 4 1016.5 1016.5 0.0
10/12:31am 21.4 23.6 19.7 90 1.1 ESE 7 9 4 5 1016.8 1016.8 0.0
10/12:30am 21.4 23.6 19.7 90 1.1 ESE 7 7 4 4 1016.8 1016.8 0.0
10/12:00am 21.5 23.7 19.6 89 1.2 ESE 7 9 4 5 1017.2 1017.2 0.0
 
Date/Time
EDT
Temp
°C
App
Temp
°C
Dew
Point
°C
Rel
Hum
%
Delta-T
°C
Wind Press
QNH
hPa
Press
MSL
hPa
Rain since
9am
mm
Dir  Spd
km/h
Gust
km/h
Spd
kts
Gust
kts
09/11:30pm 21.5 23.2 19.4 88 1.3 E 9 11 5 6 1017.0 1017.0 0.0
09/11:16pm 21.5 23.7 19.6 89 1.2 E 7 9 4 5 1017.4 1017.4 0.0
09/11:00pm 21.5 23.7 19.6 89 1.2 ESE 7 11 4 6 1017.5 1017.5 0.0
09/10:30pm 21.4 23.8 19.7 90 1.1 SE 6 7 3 4 1017.3 1017.3 0.0
09/10:00pm 21.3 23.3 19.2 88 1.3 SSE 7 9 4 5 1017.2 1017.2 0.0
09/09:30pm 21.6 23.4 19.5 88 1.3 S 9 11 5 6 1017.4 1017.4 0.0
09/09:00pm 21.8 23.5 19.4 86 1.5 NE 9 13 5 7 1016.7 1016.7 0.0
09/08:37pm 21.8 22.8 19.5 87 1.5 NE 13 17 7 9 1016.6 1016.6 0.0
09/08:30pm 21.7 22.7 19.4 87 1.5 NE 13 19 7 10 1016.7 1016.7 0.0
09/08:00pm 21.6 22.5 19.3 87 1.5 ENE 13 17 7 9 1016.2 1016.2 0.0
09/07:30pm 22.0 22.5 19.2 84 1.8 NE 15 20 8 11 1016.2 1016.2 0.0
09/07:00pm 22.7 23.3 18.7 78 2.5 ENE 13 19 7 10 1016.2 1016.2 0.0
09/06:30pm 23.4 22.7 18.3 73 3.2 E 19 26 10 14 1015.5 1015.5 0.0
09/06:00pm 24.7 24.5 18.4 68 4.0 E 17 20 9 11 1015.7 1015.7 0.0
09/05:30pm 25.3 25.9 18.7 67 4.2 ESE 13 19 7 10 1015.9 1015.9 0.0
09/05:00pm 25.0 25.4 18.9 69 3.9 E 15 20 8 11 1016.2 1016.2 0.0
09/04:30pm 24.0 23.4 18.4 71 3.5 ENE 19 24 10 13 1016.5 1016.5 0.0
09/04:00pm 23.8 23.2 18.4 72 3.4 NE 19 26 10 14 1016.4 1016.4 0.0
09/03:30pm 24.4 22.7 18.1 68 4.0 ENE 24 28 13 15 1015.8 1015.8 0.0
09/03:00pm 24.9 23.9 18.8 69 3.9 ENE 22 28 12 15 1015.8 1015.8 0.0
09/02:30pm 24.6 23.1 18.5 69 3.9 NE 24 28 13 15 1016.0 1016.0 0.0
09/02:00pm 24.1 22.0 18.1 69 3.8 NE 26 33 14 18 1016.2 1016.2 0.0
09/01:30pm 24.1 21.7 18.3 70 3.7 NE 28 35 15 19 1016.3 1016.3 0.0
09/01:00pm 24.5 22.7 19.6 74 3.1 NE 28 33 15 18 1016.6 1016.6 0.0
09/12:30pm 24.2 22.8 18.8 72 3.4 NE 24 30 13 16 1017.0 1017.0 0.0
09/12:00pm 24.0 23.2 19.3 75 3.0 NE 22 28 12 15 1017.2 1017.2 0.0
09/11:30am 23.9 23.2 19.4 76 2.9 ENE 22 26 12 14 1017.3 1017.3 0.0
09/11:00am 23.7 23.3 19.4 77 2.7 NE 20 24 11 13 1017.4 1017.4 0.0
09/10:30am 23.1 23.4 18.8 77 2.7 NE 15 19 8 10 1017.5 1017.5 0.0
09/10:00am 22.8 22.8 18.1 75 2.9 NE 15 19 8 10 1017.9 1017.9 0.0
09/09:30am 22.7 23.3 18.7 78 2.5 NE 13 17 7 9 1018.1 1018.1 0.0
09/09:00am 22.5 23.5 17.8 75 2.9 NE 9 13 5 7 1018.2 1018.2 0.0
09/08:30am 21.6 22.8 17.4 77 2.6 NE 7 11 4 6 1018.2 1018.2 0.0
09/08:00am 20.7 22.8 17.3 81 2.1 ENE 2 9 1 5 1018.0 1018.0 0.0
09/07:30am 18.6 21.5 18.3 98 0.2 CALM 0 2 0 1 1017.9 1017.9 0.0
09/07:00am 17.0 18.2 16.8 99 0.1 W 6 7 3 4 1017.7 1017.7 0.0
09/06:30am 16.2 18.3 16.2 100 0.0 CALM 0 0 0 0 1017.5 1017.5 0.0
09/06:00am 14.9 15.3 14.7 99 0.1 WSW 6 7 3 4 1017.2 1017.2 0.0
09/05:30am 14.5 14.7 14.3 99 0.1 WNW 6 9 3 5 1017.1 1017.1 0.0
09/05:00am 15.2 16.1 15.0 99 0.1 WSW 4 7 2 4 1016.9 1016.9 0.0
09/04:30am 14.8 15.1 14.6 99 0.1 WSW 6 9 3 5 1016.8 1016.8 0.0
09/04:00am 14.6 14.3 14.4 99 0.1 W 9 11 5 6 1016.7 1016.7 0.0
09/03:30am 15.3 16.6 15.1 99 0.1 WSW 2 6 1 3 1016.7 1016.7 0.0
09/03:00am 15.3 15.6 15.1 99 0.1 W 7 11 4 6 1016.9 1016.9 0.0
09/02:30am 15.5 17.2 15.3 99 0.1 CALM 0 0 0 0 1016.9 1016.9 0.0
09/02:00am 16.0 16.8 15.8 99 0.1 W 6 9 3 5 1017.0 1017.0 0.0
09/01:30am 15.0 15.4 14.8 99 0.1 W 6 9 3 5 1017.3 1017.3 0.0
09/01:00am 15.8 16.5 15.6 99 0.1 NW 6 7 3 4 1017.5 1017.5 0.0
09/12:30am 16.5 18.6 16.3 99 0.1 CALM 0 0 0 0 1017.7 1017.7 0.0
09/12:00am 17.1 18.7 16.9 99 0.1 W 4 6 2 3 1018.0 1018.0 0.0
 
Date/Time
EDT
Temp
°C
App
Temp
°C
Dew
Point
°C
Rel
Hum
%
Delta-T
°C
Wind Press
QNH
hPa
Press
MSL
hPa
Rain since
9am
mm
Dir  Spd
km/h
Gust
km/h
Spd
kts
Gust
kts
08/11:30pm 17.3 19.6 16.7 96 0.4 CALM 0 0 0 0 1018.2 1018.2 0.0
08/11:00pm 18.1 20.5 17.0 93 0.7 CALM 0 0 0 0 1018.3 1018.3 0.0
08/10:30pm 18.8 21.4 17.5 92 0.8 CALM 0 0 0 0 1018.4 1018.4 0.0
08/10:00pm 19.4 20.7 17.2 87 1.3 NW 6 7 3 4 1018.5 1018.5 0.0
08/09:30pm 21.0 21.9 17.6 81 2.1 NNE 9 11 5 6 1018.4 1018.4 0.0
08/09:00pm 21.0 22.6 17.8 82 2.0 ENE 6 9 3 5 1018.1 1018.1 0.0
08/08:30pm 21.9 23.1 18.3 80 2.2 NE 9 15 5 8 1017.6 1017.6 0.0

Other Formats:

Comma delimited format used in spreadsheet applications
http://www.bom.gov.au/fwo/IDN60801/IDN60801.95748.axf

JavaScript Object Notation format (JSON) in row-major order
http://www.bom.gov.au/fwo/IDN60801/IDN60801.95748.json